sensor_id;sensor_type;location;lat;lon;timestamp;temperature;humidity
55828;DHT22;41758;51.992;5.890;2023-04-25T00:02:18;11.30;70.50
55828;DHT22;41758;51.992;5.890;2023-04-25T00:04:45;11.20;70.50
55828;DHT22;41758;51.992;5.890;2023-04-25T00:07:11;11.20;70.50
55828;DHT22;41758;51.992;5.890;2023-04-25T00:09:38;11.20;70.50
55828;DHT22;41758;51.992;5.890;2023-04-25T00:12:03;11.10;70.50
55828;DHT22;41758;51.992;5.890;2023-04-25T00:14:30;11.10;70.60
55828;DHT22;41758;51.992;5.890;2023-04-25T00:16:55;11.10;70.50
55828;DHT22;41758;51.992;5.890;2023-04-25T00:19:21;11.00;70.40
55828;DHT22;41758;51.992;5.890;2023-04-25T00:21:47;11.00;70.50
55828;DHT22;41758;51.992;5.890;2023-04-25T00:24:13;11.00;70.60
55828;DHT22;41758;51.992;5.890;2023-04-25T00:26:38;11.00;70.70
55828;DHT22;41758;51.992;5.890;2023-04-25T00:29:04;11.00;70.70
55828;DHT22;41758;51.992;5.890;2023-04-25T00:31:30;11.00;70.60
55828;DHT22;41758;51.992;5.890;2023-04-25T00:33:56;11.00;70.60
55828;DHT22;41758;51.992;5.890;2023-04-25T00:36:22;11.00;70.60
55828;DHT22;41758;51.992;5.890;2023-04-25T00:38:48;10.90;70.30
55828;DHT22;41758;51.992;5.890;2023-04-25T00:41:13;10.90;70.50
55828;DHT22;41758;51.992;5.890;2023-04-25T00:43:40;10.90;70.60
55828;DHT22;41758;51.992;5.890;2023-04-25T00:46:06;10.90;70.60
55828;DHT22;41758;51.992;5.890;2023-04-25T00:48:31;11.00;70.60
55828;DHT22;41758;51.992;5.890;2023-04-25T00:50:58;11.00;70.70
55828;DHT22;41758;51.992;5.890;2023-04-25T00:53:26;11.00;70.70
55828;DHT22;41758;51.992;5.890;2023-04-25T00:55:52;11.00;70.90
55828;DHT22;41758;51.992;5.890;2023-04-25T00:58:19;11.00;70.70
55828;DHT22;41758;51.992;5.890;2023-04-25T01:00:46;11.00;70.60
55828;DHT22;41758;51.992;5.890;2023-04-25T01:03:14;11.00;70.50
55828;DHT22;41758;51.992;5.890;2023-04-25T01:05:42;11.00;70.50
55828;DHT22;41758;51.992;5.890;2023-04-25T01:08:07;11.00;70.50
55828;DHT22;41758;51.992;5.890;2023-04-25T01:10:33;10.90;70.40
55828;DHT22;41758;51.992;5.890;2023-04-25T01:12:59;10.90;70.30
55828;DHT22;41758;51.992;5.890;2023-04-25T01:15:25;10.90;70.30
55828;DHT22;41758;51.992;5.890;2023-04-25T01:17:51;10.90;70.20
55828;DHT22;41758;51.992;5.890;2023-04-25T01:20:21;10.90;70.10
55828;DHT22;41758;51.992;5.890;2023-04-25T01:22:49;10.80;70.30
55828;DHT22;41758;51.992;5.890;2023-04-25T01:25:16;10.80;70.40
55828;DHT22;41758;51.992;5.890;2023-04-25T01:27:43;10.80;70.50
55828;DHT22;41758;51.992;5.890;2023-04-25T01:30:09;10.80;70.60
55828;DHT22;41758;51.992;5.890;2023-04-25T01:32:35;10.80;70.50
55828;DHT22;41758;51.992;5.890;2023-04-25T01:35:09;10.80;70.40
55828;DHT22;41758;51.992;5.890;2023-04-25T01:37:40;10.80;70.50
55828;DHT22;41758;51.992;5.890;2023-04-25T01:40:07;10.80;70.60
55828;DHT22;41758;51.992;5.890;2023-04-25T01:42:35;10.80;70.60
55828;DHT22;41758;51.992;5.890;2023-04-25T01:45:02;10.80;70.40
55828;DHT22;41758;51.992;5.890;2023-04-25T01:47:27;10.80;70.40
55828;DHT22;41758;51.992;5.890;2023-04-25T01:49:54;10.80;70.70
55828;DHT22;41758;51.992;5.890;2023-04-25T01:52:19;10.90;70.80
55828;DHT22;41758;51.992;5.890;2023-04-25T01:54:46;10.90;70.90
55828;DHT22;41758;51.992;5.890;2023-04-25T01:57:14;10.90;71.00
55828;DHT22;41758;51.992;5.890;2023-04-25T01:59:42;10.90;71.00
55828;DHT22;41758;51.992;5.890;2023-04-25T02:02:16;10.90;70.70
55828;DHT22;41758;51.992;5.890;2023-04-25T02:04:42;10.90;70.80
55828;DHT22;41758;51.992;5.890;2023-04-25T02:07:08;10.90;70.70
55828;DHT22;41758;51.992;5.890;2023-04-25T02:09:46;10.90;70.70
55828;DHT22;41758;51.992;5.890;2023-04-25T02:12:12;10.90;70.80
55828;DHT22;41758;51.992;5.890;2023-04-25T02:14:54;10.90;70.60
55828;DHT22;41758;51.992;5.890;2023-04-25T02:17:35;10.80;70.60
55828;DHT22;41758;51.992;5.890;2023-04-25T02:20:01;10.80;70.40
55828;DHT22;41758;51.992;5.890;2023-04-25T02:22:27;10.80;70.40
55828;DHT22;41758;51.992;5.890;2023-04-25T02:24:55;10.80;70.60
55828;DHT22;41758;51.992;5.890;2023-04-25T02:27:21;10.80;70.60
55828;DHT22;41758;51.992;5.890;2023-04-25T02:29:47;10.80;70.70
55828;DHT22;41758;51.992;5.890;2023-04-25T02:32:12;10.80;70.80
55828;DHT22;41758;51.992;5.890;2023-04-25T02:34:38;10.90;70.80
55828;DHT22;41758;51.992;5.890;2023-04-25T02:37:03;10.80;70.80
55828;DHT22;41758;51.992;5.890;2023-04-25T02:39:29;10.80;70.80
55828;DHT22;41758;51.992;5.890;2023-04-25T02:41:55;10.80;70.60
55828;DHT22;41758;51.992;5.890;2023-04-25T02:44:21;10.80;70.60
55828;DHT22;41758;51.992;5.890;2023-04-25T02:46:46;10.80;70.50
55828;DHT22;41758;51.992;5.890;2023-04-25T02:49:12;10.80;70.30
55828;DHT22;41758;51.992;5.890;2023-04-25T02:51:38;10.70;70.10
55828;DHT22;41758;51.992;5.890;2023-04-25T02:54:04;10.70;70.10
55828;DHT22;41758;51.992;5.890;2023-04-25T02:56:35;10.60;70.10
55828;DHT22;41758;51.992;5.890;2023-04-25T02:59:02;10.60;70.20
55828;DHT22;41758;51.992;5.890;2023-04-25T03:01:28;10.50;70.20
55828;DHT22;41758;51.992;5.890;2023-04-25T03:03:54;10.50;70.20
55828;DHT22;41758;51.992;5.890;2023-04-25T03:06:20;10.50;70.20
55828;DHT22;41758;51.992;5.890;2023-04-25T03:08:45;10.40;70.20
55828;DHT22;41758;51.992;5.890;2023-04-25T03:11:11;10.40;70.20
55828;DHT22;41758;51.992;5.890;2023-04-25T03:13:37;10.40;70.20
55828;DHT22;41758;51.992;5.890;2023-04-25T03:16:03;10.40;70.30
55828;DHT22;41758;51.992;5.890;2023-04-25T03:18:29;10.30;70.20
55828;DHT22;41758;51.992;5.890;2023-04-25T03:20:55;10.30;70.30
55828;DHT22;41758;51.992;5.890;2023-04-25T03:23:21;10.30;70.20
55828;DHT22;41758;51.992;5.890;2023-04-25T03:25:46;10.30;70.20
55828;DHT22;41758;51.992;5.890;2023-04-25T03:28:12;10.30;70.10
55828;DHT22;41758;51.992;5.890;2023-04-25T03:30:38;10.20;70.20
55828;DHT22;41758;51.992;5.890;2023-04-25T03:33:03;10.20;70.20
55828;DHT22;41758;51.992;5.890;2023-04-25T03:35:29;10.10;70.10
55828;DHT22;41758;51.992;5.890;2023-04-25T03:37:55;10.10;70.20
55828;DHT22;41758;51.992;5.890;2023-04-25T03:40:27;10.10;70.60
55828;DHT22;41758;51.992;5.890;2023-04-25T03:43:24;10.10;70.70
55828;DHT22;41758;51.992;5.890;2023-04-25T03:46:02;10.00;70.60
55828;DHT22;41758;51.992;5.890;2023-04-25T03:48:27;10.00;71.00
55828;DHT22;41758;51.992;5.890;2023-04-25T03:50:54;10.00;71.20
55828;DHT22;41758;51.992;5.890;2023-04-25T03:53:20;10.10;71.40
55828;DHT22;41758;51.992;5.890;2023-04-25T03:56:05;10.10;71.40
55828;DHT22;41758;51.992;5.890;2023-04-25T03:58:34;10.00;71.30
55828;DHT22;41758;51.992;5.890;2023-04-25T04:01:00;10.00;71.30
55828;DHT22;41758;51.992;5.890;2023-04-25T04:03:28;10.00;71.10
55828;DHT22;41758;51.992;5.890;2023-04-25T04:05:53;9.90;71.10
55828;DHT22;41758;51.992;5.890;2023-04-25T04:08:20;9.90;71.20
55828;DHT22;41758;51.992;5.890;2023-04-25T04:10:46;9.90;71.30
55828;DHT22;41758;51.992;5.890;2023-04-25T04:13:12;9.90;71.40
55828;DHT22;41758;51.992;5.890;2023-04-25T04:15:38;9.90;71.40
55828;DHT22;41758;51.992;5.890;2023-04-25T04:18:03;9.80;71.30
55828;DHT22;41758;51.992;5.890;2023-04-25T04:20:30;9.80;71.30
55828;DHT22;41758;51.992;5.890;2023-04-25T04:22:56;9.80;71.30
55828;DHT22;41758;51.992;5.890;2023-04-25T04:25:23;9.80;71.10
55828;DHT22;41758;51.992;5.890;2023-04-25T04:28:03;9.80;70.80
55828;DHT22;41758;51.992;5.890;2023-04-25T04:31:05;9.70;70.80
55828;DHT22;41758;51.992;5.890;2023-04-25T04:33:31;9.70;71.10
55828;DHT22;41758;51.992;5.890;2023-04-25T04:36:00;9.70;71.30
55828;DHT22;41758;51.992;5.890;2023-04-25T04:38:27;9.70;71.30
55828;DHT22;41758;51.992;5.890;2023-04-25T04:40:56;9.70;71.40
55828;DHT22;41758;51.992;5.890;2023-04-25T04:43:28;9.60;71.30
55828;DHT22;41758;51.992;5.890;2023-04-25T04:46:21;9.60;71.50
55828;DHT22;41758;51.992;5.890;2023-04-25T04:48:57;9.60;71.60
55828;DHT22;41758;51.992;5.890;2023-04-25T04:51:52;9.60;71.60
55828;DHT22;41758;51.992;5.890;2023-04-25T04:54:38;9.60;71.70
55828;DHT22;41758;51.992;5.890;2023-04-25T04:57:17;9.70;71.70
55828;DHT22;41758;51.992;5.890;2023-04-25T04:59:57;9.70;71.90
55828;DHT22;41758;51.992;5.890;2023-04-25T05:02:49;9.70;72.00
55828;DHT22;41758;51.992;5.890;2023-04-25T05:05:33;9.80;72.10
55828;DHT22;41758;51.992;5.890;2023-04-25T05:08:30;9.80;72.30
55828;DHT22;41758;51.992;5.890;2023-04-25T05:11:14;9.90;72.50
55828;DHT22;41758;51.992;5.890;2023-04-25T05:13:52;9.90;72.60
55828;DHT22;41758;51.992;5.890;2023-04-25T05:16:37;10.00;72.70
55828;DHT22;41758;51.992;5.890;2023-04-25T05:19:20;10.00;72.50
55828;DHT22;41758;51.992;5.890;2023-04-25T05:21:55;10.00;72.50
55828;DHT22;41758;51.992;5.890;2023-04-25T05:24:36;10.10;72.50
55828;DHT22;41758;51.992;5.890;2023-04-25T05:27:21;10.10;72.70
55828;DHT22;41758;51.992;5.890;2023-04-25T05:30:05;10.20;72.80
55828;DHT22;41758;51.992;5.890;2023-04-25T05:32:36;10.20;73.00
55828;DHT22;41758;51.992;5.890;2023-04-25T05:35:02;10.30;73.20
55828;DHT22;41758;51.992;5.890;2023-04-25T05:37:34;10.30;73.20
55828;DHT22;41758;51.992;5.890;2023-04-25T05:40:22;10.30;73.30
55828;DHT22;41758;51.992;5.890;2023-04-25T05:43:07;10.30;73.40
55828;DHT22;41758;51.992;5.890;2023-04-25T05:45:58;10.30;73.20
55828;DHT22;41758;51.992;5.890;2023-04-25T05:48:27;10.30;73.30
55828;DHT22;41758;51.992;5.890;2023-04-25T05:51:00;10.30;73.30
55828;DHT22;41758;51.992;5.890;2023-04-25T05:53:46;10.40;73.30
55828;DHT22;41758;51.992;5.890;2023-04-25T05:56:13;10.40;73.30
55828;DHT22;41758;51.992;5.890;2023-04-25T05:58:39;10.50;73.30
55828;DHT22;41758;51.992;5.890;2023-04-25T06:01:07;10.50;73.40
55828;DHT22;41758;51.992;5.890;2023-04-25T06:03:33;10.50;73.40
55828;DHT22;41758;51.992;5.890;2023-04-25T06:05:58;10.60;73.40
55828;DHT22;41758;51.992;5.890;2023-04-25T06:08:25;10.70;73.40
55828;DHT22;41758;51.992;5.890;2023-04-25T06:10:50;10.80;73.50
55828;DHT22;41758;51.992;5.890;2023-04-25T06:13:16;10.80;73.50
55828;DHT22;41758;51.992;5.890;2023-04-25T06:15:42;10.90;73.40
55828;DHT22;41758;51.992;5.890;2023-04-25T06:18:08;11.00;73.30
55828;DHT22;41758;51.992;5.890;2023-04-25T06:20:34;11.00;73.30
55828;DHT22;41758;51.992;5.890;2023-04-25T06:23:00;11.10;73.30
55828;DHT22;41758;51.992;5.890;2023-04-25T06:25:46;11.10;73.20
55828;DHT22;41758;51.992;5.890;2023-04-25T06:28:12;11.20;73.20
55828;DHT22;41758;51.992;5.890;2023-04-25T06:30:38;11.20;73.10
55828;DHT22;41758;51.992;5.890;2023-04-25T06:33:11;11.20;73.10
55828;DHT22;41758;51.992;5.890;2023-04-25T06:35:39;11.30;73.10
55828;DHT22;41758;51.992;5.890;2023-04-25T06:38:06;11.30;73.20
55828;DHT22;41758;51.992;5.890;2023-04-25T06:40:32;11.40;73.30
55828;DHT22;41758;51.992;5.890;2023-04-25T06:42:58;11.40;73.30
55828;DHT22;41758;51.992;5.890;2023-04-25T06:45:48;11.50;73.40
55828;DHT22;41758;51.992;5.890;2023-04-25T06:48:15;11.60;73.50
55828;DHT22;41758;51.992;5.890;2023-04-25T06:50:41;11.70;73.70
55828;DHT22;41758;51.992;5.890;2023-04-25T06:53:07;11.80;73.70
55828;DHT22;41758;51.992;5.890;2023-04-25T06:55:35;11.80;73.60
55828;DHT22;41758;51.992;5.890;2023-04-25T06:58:12;11.80;73.50
55828;DHT22;41758;51.992;5.890;2023-04-25T07:01:03;11.90;73.20
55828;DHT22;41758;51.992;5.890;2023-04-25T07:03:29;11.90;73.40
55828;DHT22;41758;51.992;5.890;2023-04-25T07:05:59;11.90;73.60
55828;DHT22;41758;51.992;5.890;2023-04-25T07:08:25;12.00;73.70
55828;DHT22;41758;51.992;5.890;2023-04-25T07:10:51;12.00;73.70
55828;DHT22;41758;51.992;5.890;2023-04-25T07:13:16;12.00;73.50
55828;DHT22;41758;51.992;5.890;2023-04-25T07:15:43;12.00;73.60
55828;DHT22;41758;51.992;5.890;2023-04-25T07:18:10;12.00;73.60
55828;DHT22;41758;51.992;5.890;2023-04-25T07:20:36;12.00;73.50
55828;DHT22;41758;51.992;5.890;2023-04-25T07:23:02;12.10;73.50
55828;DHT22;41758;51.992;5.890;2023-04-25T07:25:28;12.10;73.50
55828;DHT22;41758;51.992;5.890;2023-04-25T07:27:54;12.20;73.60
55828;DHT22;41758;51.992;5.890;2023-04-25T07:30:21;12.20;73.60
55828;DHT22;41758;51.992;5.890;2023-04-25T07:32:47;12.30;73.80
55828;DHT22;41758;51.992;5.890;2023-04-25T07:35:12;12.40;73.80
55828;DHT22;41758;51.992;5.890;2023-04-25T07:37:38;12.50;73.90
55828;DHT22;41758;51.992;5.890;2023-04-25T07:40:10;12.60;73.90
55828;DHT22;41758;51.992;5.890;2023-04-25T07:42:41;12.70;74.00
55828;DHT22;41758;51.992;5.890;2023-04-25T07:45:09;12.80;73.30
55828;DHT22;41758;51.992;5.890;2023-04-25T07:47:35;12.80;73.10
55828;DHT22;41758;51.992;5.890;2023-04-25T07:50:03;12.80;72.80
55828;DHT22;41758;51.992;5.890;2023-04-25T07:52:30;12.80;73.10
55828;DHT22;41758;51.992;5.890;2023-04-25T07:55:05;12.90;73.30
55828;DHT22;41758;51.992;5.890;2023-04-25T07:57:40;12.90;73.30
55828;DHT22;41758;51.992;5.890;2023-04-25T08:00:07;13.00;73.00
55828;DHT22;41758;51.992;5.890;2023-04-25T08:02:39;13.00;71.80
55828;DHT22;41758;51.992;5.890;2023-04-25T08:05:09;12.90;71.70
55828;DHT22;41758;51.992;5.890;2023-04-25T08:07:40;13.00;71.60
55828;DHT22;41758;51.992;5.890;2023-04-25T08:10:07;12.90;72.00
55828;DHT22;41758;51.992;5.890;2023-04-25T08:12:33;12.90;72.00
55828;DHT22;41758;51.992;5.890;2023-04-25T08:14:59;12.90;70.70
55828;DHT22;41758;51.992;5.890;2023-04-25T08:17:30;12.80;70.40
55828;DHT22;41758;51.992;5.890;2023-04-25T08:19:56;12.80;70.40
55828;DHT22;41758;51.992;5.890;2023-04-25T08:22:32;12.80;70.80
55828;DHT22;41758;51.992;5.890;2023-04-25T08:25:19;12.70;70.90
55828;DHT22;41758;51.992;5.890;2023-04-25T08:27:45;12.80;71.00
55828;DHT22;41758;51.992;5.890;2023-04-25T08:30:12;12.80;71.60
55828;DHT22;41758;51.992;5.890;2023-04-25T08:32:39;13.00;72.40
55828;DHT22;41758;51.992;5.890;2023-04-25T08:35:24;13.20;72.30
55828;DHT22;41758;51.992;5.890;2023-04-25T08:37:50;13.30;72.80
55828;DHT22;41758;51.992;5.890;2023-04-25T08:40:16;13.40;71.40
55828;DHT22;41758;51.992;5.890;2023-04-25T08:43:00;13.50;72.00
55828;DHT22;41758;51.992;5.890;2023-04-25T08:45:32;13.60;70.70
55828;DHT22;41758;51.992;5.890;2023-04-25T08:47:58;13.50;71.30
55828;DHT22;41758;51.992;5.890;2023-04-25T08:50:25;13.60;71.90
55828;DHT22;41758;51.992;5.890;2023-04-25T08:52:53;13.60;72.40
55828;DHT22;41758;51.992;5.890;2023-04-25T08:55:21;13.70;71.50
55828;DHT22;41758;51.992;5.890;2023-04-25T08:57:49;13.70;70.30
55828;DHT22;41758;51.992;5.890;2023-04-25T09:00:16;13.70;71.30
55828;DHT22;41758;51.992;5.890;2023-04-25T09:02:44;13.70;71.30
55828;DHT22;41758;51.992;5.890;2023-04-25T09:05:12;13.70;71.20
55828;DHT22;41758;51.992;5.890;2023-04-25T09:07:39;13.70;70.30
55828;DHT22;41758;51.992;5.890;2023-04-25T09:10:05;13.70;70.20
55828;DHT22;41758;51.992;5.890;2023-04-25T09:12:35;13.70;71.00
55828;DHT22;41758;51.992;5.890;2023-04-25T09:15:09;13.70;70.00
55828;DHT22;41758;51.992;5.890;2023-04-25T09:18:04;13.60;70.80
55828;DHT22;41758;51.992;5.890;2023-04-25T09:20:42;13.60;70.20
55828;DHT22;41758;51.992;5.890;2023-04-25T09:23:08;13.60;71.20
55828;DHT22;41758;51.992;5.890;2023-04-25T09:25:37;13.60;72.40
55828;DHT22;41758;51.992;5.890;2023-04-25T09:28:06;13.70;72.60
55828;DHT22;41758;51.992;5.890;2023-04-25T09:30:34;13.80;72.90
55828;DHT22;41758;51.992;5.890;2023-04-25T09:33:33;13.90;72.20
55828;DHT22;41758;51.992;5.890;2023-04-25T09:36:06;13.90;71.70
55828;DHT22;41758;51.992;5.890;2023-04-25T09:38:55;13.90;71.60
55828;DHT22;41758;51.992;5.890;2023-04-25T09:41:26;13.80;70.00
55828;DHT22;41758;51.992;5.890;2023-04-25T09:43:57;13.70;70.40
55828;DHT22;41758;51.992;5.890;2023-04-25T09:46:33;13.60;69.80
55828;DHT22;41758;51.992;5.890;2023-04-25T09:49:06;13.60;71.00
55828;DHT22;41758;51.992;5.890;2023-04-25T09:51:38;13.60;70.50
55828;DHT22;41758;51.992;5.890;2023-04-25T09:54:06;13.70;70.70
55828;DHT22;41758;51.992;5.890;2023-04-25T09:56:36;13.90;72.20
55828;DHT22;41758;51.992;5.890;2023-04-25T09:59:05;14.00;72.20
55828;DHT22;41758;51.992;5.890;2023-04-25T10:01:34;14.20;72.80
55828;DHT22;41758;51.992;5.890;2023-04-25T10:04:10;14.40;73.10
55828;DHT22;41758;51.992;5.890;2023-04-25T10:06:44;14.60;73.10
55828;DHT22;41758;51.992;5.890;2023-04-25T10:09:11;14.80;72.80
55828;DHT22;41758;51.992;5.890;2023-04-25T10:11:39;15.00;71.10
55828;DHT22;41758;51.992;5.890;2023-04-25T10:14:05;15.00;68.30
55828;DHT22;41758;51.992;5.890;2023-04-25T10:16:31;14.90;67.80
55828;DHT22;41758;51.992;5.890;2023-04-25T10:18:57;14.80;68.60
55828;DHT22;41758;51.992;5.890;2023-04-25T10:21:24;14.70;69.10
55828;DHT22;41758;51.992;5.890;2023-04-25T10:23:53;14.70;69.20
55828;DHT22;41758;51.992;5.890;2023-04-25T10:26:19;14.70;69.30
55828;DHT22;41758;51.992;5.890;2023-04-25T10:31:20;14.90;70.50
55828;DHT22;41758;51.992;5.890;2023-04-25T10:33:46;15.00;69.80
55828;DHT22;41758;51.992;5.890;2023-04-25T10:36:17;15.00;69.40
55828;DHT22;41758;51.992;5.890;2023-04-25T10:38:44;15.00;65.60
55828;DHT22;41758;51.992;5.890;2023-04-25T10:41:11;14.80;64.00
55828;DHT22;41758;51.992;5.890;2023-04-25T10:43:49;14.60;66.00
55828;DHT22;41758;51.992;5.890;2023-04-25T10:46:27;14.30;66.40
55828;DHT22;41758;51.992;5.890;2023-04-25T10:51:25;14.10;69.00
55828;DHT22;41758;51.992;5.890;2023-04-25T10:56:23;14.50;71.30
55828;DHT22;41758;51.992;5.890;2023-04-25T10:58:50;15.00;72.60
55828;DHT22;41758;51.992;5.890;2023-04-25T11:01:20;15.40;72.90
55828;DHT22;41758;51.992;5.890;2023-04-25T11:03:46;15.60;72.20
55828;DHT22;41758;51.992;5.890;2023-04-25T11:09:10;15.90;69.80
55828;DHT22;41758;51.992;5.890;2023-04-25T11:11:39;15.90;68.90
55828;DHT22;41758;51.992;5.890;2023-04-25T11:14:04;15.80;69.10
55828;DHT22;41758;51.992;5.890;2023-04-25T11:16:30;15.80;69.30
55828;DHT22;41758;51.992;5.890;2023-04-25T11:18:58;15.90;69.30
55828;DHT22;41758;51.992;5.890;2023-04-25T11:21:27;16.10;70.70
55828;DHT22;41758;51.992;5.890;2023-04-25T11:23:57;16.30;70.60
55828;DHT22;41758;51.992;5.890;2023-04-25T11:26:24;16.30;69.00
55828;DHT22;41758;51.992;5.890;2023-04-25T11:28:50;16.30;69.70
55828;DHT22;41758;51.992;5.890;2023-04-25T11:31:16;16.50;71.60
55828;DHT22;41758;51.992;5.890;2023-04-25T11:33:45;16.80;71.90
55828;DHT22;41758;51.992;5.890;2023-04-25T11:36:12;17.10;72.70
55828;DHT22;41758;51.992;5.890;2023-04-25T11:38:37;17.40;71.80
55828;DHT22;41758;51.992;5.890;2023-04-25T11:41:03;17.80;71.50
55828;DHT22;41758;51.992;5.890;2023-04-25T11:43:29;18.10;71.60
55828;DHT22;41758;51.992;5.890;2023-04-25T11:45:55;18.30;69.30
55828;DHT22;41758;51.992;5.890;2023-04-25T11:48:20;18.40;65.40
55828;DHT22;41758;51.992;5.890;2023-04-25T11:50:46;18.30;64.80
55828;DHT22;41758;51.992;5.890;2023-04-25T11:53:12;18.20;64.40
55828;DHT22;41758;51.992;5.890;2023-04-25T11:55:38;18.30;66.40
55828;DHT22;41758;51.992;5.890;2023-04-25T11:58:05;18.50;68.00
55828;DHT22;41758;51.992;5.890;2023-04-25T12:00:31;18.80;67.80
55828;DHT22;41758;51.992;5.890;2023-04-25T12:02:57;19.30;69.50
55828;DHT22;41758;51.992;5.890;2023-04-25T12:05:26;19.70;69.50
55828;DHT22;41758;51.992;5.890;2023-04-25T12:07:52;19.80;64.30
55828;DHT22;41758;51.992;5.890;2023-04-25T12:10:18;19.50;60.50
55828;DHT22;41758;51.992;5.890;2023-04-25T12:12:46;19.00;56.40
55828;DHT22;41758;51.992;5.890;2023-04-25T12:15:23;18.40;56.70
55828;DHT22;41758;51.992;5.890;2023-04-25T12:17:51;17.90;58.00
55828;DHT22;41758;51.992;5.890;2023-04-25T12:20:18;17.40;57.30
55828;DHT22;41758;51.992;5.890;2023-04-25T12:22:53;17.10;59.10
55828;DHT22;41758;51.992;5.890;2023-04-25T12:25:40;16.70;59.80
55828;DHT22;41758;51.992;5.890;2023-04-25T12:28:21;16.20;59.00
55828;DHT22;41758;51.992;5.890;2023-04-25T12:31:02;15.80;60.50
55828;DHT22;41758;51.992;5.890;2023-04-25T12:33:33;15.40;61.50
55828;DHT22;41758;51.992;5.890;2023-04-25T12:36:00;15.20;62.20
55828;DHT22;41758;51.992;5.890;2023-04-25T12:38:36;15.10;62.90
55828;DHT22;41758;51.992;5.890;2023-04-25T12:41:02;14.90;63.00
55828;DHT22;41758;51.992;5.890;2023-04-25T12:43:27;15.00;64.30
55828;DHT22;41758;51.992;5.890;2023-04-25T12:45:54;15.10;64.80
55828;DHT22;41758;51.992;5.890;2023-04-25T12:48:21;15.30;65.30
55828;DHT22;41758;51.992;5.890;2023-04-25T12:50:47;15.30;65.30
55828;DHT22;41758;51.992;5.890;2023-04-25T12:53:22;15.60;65.30
55828;DHT22;41758;51.992;5.890;2023-04-25T12:55:48;15.80;66.10
55828;DHT22;41758;51.992;5.890;2023-04-25T12:58:15;16.10;65.20
55828;DHT22;41758;51.992;5.890;2023-04-25T13:00:41;16.30;63.80
55828;DHT22;41758;51.992;5.890;2023-04-25T13:03:08;16.40;63.50
55828;DHT22;41758;51.992;5.890;2023-04-25T13:05:34;16.70;63.10
55828;DHT22;41758;51.992;5.890;2023-04-25T13:08:00;17.00;63.20
55828;DHT22;41758;51.992;5.890;2023-04-25T13:10:26;17.10;61.20
55828;DHT22;41758;51.992;5.890;2023-04-25T13:12:52;17.30;61.30
55828;DHT22;41758;51.992;5.890;2023-04-25T13:15:19;17.60;62.00
55828;DHT22;41758;51.992;5.890;2023-04-25T13:17:45;18.00;61.40
55828;DHT22;41758;51.992;5.890;2023-04-25T13:20:10;18.00;57.50
55828;DHT22;41758;51.992;5.890;2023-04-25T13:22:39;17.90;56.80
55828;DHT22;41758;51.992;5.890;2023-04-25T13:25:07;17.70;57.10
55828;DHT22;41758;51.992;5.890;2023-04-25T13:27:34;17.70;59.10
55828;DHT22;41758;51.992;5.890;2023-04-25T13:30:03;17.70;58.40
55828;DHT22;41758;51.992;5.890;2023-04-25T13:32:41;17.90;58.50
55828;DHT22;41758;51.992;5.890;2023-04-25T13:35:09;18.20;57.50
55828;DHT22;41758;51.992;5.890;2023-04-25T13:37:35;18.40;56.50
55828;DHT22;41758;51.992;5.890;2023-04-25T13:40:10;18.50;55.50
55828;DHT22;41758;51.992;5.890;2023-04-25T13:42:39;18.50;56.70
55828;DHT22;41758;51.992;5.890;2023-04-25T13:45:06;18.60;58.30
55828;DHT22;41758;51.992;5.890;2023-04-25T13:47:33;18.70;58.30
55828;DHT22;41758;51.992;5.890;2023-04-25T13:49:59;18.80;59.70
55828;DHT22;41758;51.992;5.890;2023-04-25T13:52:25;19.00;59.10
55828;DHT22;41758;51.992;5.890;2023-04-25T13:54:51;19.10;54.40
55828;DHT22;41758;51.992;5.890;2023-04-25T13:57:17;19.10;55.00
55828;DHT22;41758;51.992;5.890;2023-04-25T13:59:43;18.90;54.90
55828;DHT22;41758;51.992;5.890;2023-04-25T14:02:09;18.60;53.20
55828;DHT22;41758;51.992;5.890;2023-04-25T14:04:35;18.50;52.80
55828;DHT22;41758;51.992;5.890;2023-04-25T14:07:02;18.50;55.50
55828;DHT22;41758;51.992;5.890;2023-04-25T14:09:28;18.70;55.30
55828;DHT22;41758;51.992;5.890;2023-04-25T14:11:54;18.90;55.60
55828;DHT22;41758;51.992;5.890;2023-04-25T14:14:21;18.90;53.40
55828;DHT22;41758;51.992;5.890;2023-04-25T14:16:48;18.80;51.60
55828;DHT22;41758;51.992;5.890;2023-04-25T14:19:14;18.40;51.30
55828;DHT22;41758;51.992;5.890;2023-04-25T14:21:40;18.10;51.30
55828;DHT22;41758;51.992;5.890;2023-04-25T14:24:06;17.80;51.20
55828;DHT22;41758;51.992;5.890;2023-04-25T14:26:33;17.50;52.40
55828;DHT22;41758;51.992;5.890;2023-04-25T14:28:59;17.30;53.30
55828;DHT22;41758;51.992;5.890;2023-04-25T14:31:25;17.20;54.30
55828;DHT22;41758;51.992;5.890;2023-04-25T14:33:50;17.20;54.00
55828;DHT22;41758;51.992;5.890;2023-04-25T14:36:16;17.20;54.70
55828;DHT22;41758;51.992;5.890;2023-04-25T14:38:42;17.20;54.80
55828;DHT22;41758;51.992;5.890;2023-04-25T14:41:08;17.30;55.40
55828;DHT22;41758;51.992;5.890;2023-04-25T14:43:34;17.40;56.00
55828;DHT22;41758;51.992;5.890;2023-04-25T14:46:01;17.60;57.30
55828;DHT22;41758;51.992;5.890;2023-04-25T14:48:28;17.90;57.70
55828;DHT22;41758;51.992;5.890;2023-04-25T14:50:54;18.20;57.00
55828;DHT22;41758;51.992;5.890;2023-04-25T14:53:22;18.30;53.50
55828;DHT22;41758;51.992;5.890;2023-04-25T14:55:47;18.30;55.10
55828;DHT22;41758;51.992;5.890;2023-04-25T14:58:14;18.40;54.30
55828;DHT22;41758;51.992;5.890;2023-04-25T15:00:40;18.40;52.90
55828;DHT22;41758;51.992;5.890;2023-04-25T15:03:06;18.30;53.20
55828;DHT22;41758;51.992;5.890;2023-04-25T15:05:33;18.10;51.90
55828;DHT22;41758;51.992;5.890;2023-04-25T15:07:59;17.80;51.30
55828;DHT22;41758;51.992;5.890;2023-04-25T15:10:25;17.60;51.50
55828;DHT22;41758;51.992;5.890;2023-04-25T15:12:51;17.40;52.60
55828;DHT22;41758;51.992;5.890;2023-04-25T15:15:19;17.20;53.30
55828;DHT22;41758;51.992;5.890;2023-04-25T15:17:44;17.30;55.50
55828;DHT22;41758;51.992;5.890;2023-04-25T15:20:11;17.60;56.40
55828;DHT22;41758;51.992;5.890;2023-04-25T15:22:43;17.70;54.50
55828;DHT22;41758;51.992;5.890;2023-04-25T15:25:09;17.60;52.90
55828;DHT22;41758;51.992;5.890;2023-04-25T15:27:39;17.40;50.80
55828;DHT22;41758;51.992;5.890;2023-04-25T15:30:11;17.10;51.60
55828;DHT22;41758;51.992;5.890;2023-04-25T15:32:39;16.90;52.30
55828;DHT22;41758;51.992;5.890;2023-04-25T15:35:05;16.60;52.70
55828;DHT22;41758;51.992;5.890;2023-04-25T15:37:32;16.40;52.80
55828;DHT22;41758;51.992;5.890;2023-04-25T15:40:08;16.20;54.10
55828;DHT22;41758;51.992;5.890;2023-04-25T15:42:35;16.00;55.90
55828;DHT22;41758;51.992;5.890;2023-04-25T15:45:03;15.90;55.80
55828;DHT22;41758;51.992;5.890;2023-04-25T15:47:29;15.90;54.70
55828;DHT22;41758;51.992;5.890;2023-04-25T15:49:55;16.00;56.00
55828;DHT22;41758;51.992;5.890;2023-04-25T15:52:21;16.30;56.90
55828;DHT22;41758;51.992;5.890;2023-04-25T15:54:47;16.70;57.40
55828;DHT22;41758;51.992;5.890;2023-04-25T15:57:13;16.90;56.90